createdAt,value
2022-10-04T00:01:55.140Z,79.94
2022-10-04T00:04:28.966Z,79.84
2022-10-04T00:07:02.674Z,79.94
2022-10-04T00:09:37.810Z,80.04
2022-10-04T00:12:08.472Z,79.98
2022-10-04T00:14:44.225Z,80.43
2022-10-04T00:17:19.595Z,80.06
2022-10-04T00:19:50.862Z,80.21
2022-10-04T00:22:28.780Z,80.51
2022-10-04T00:25:22.417Z,80.55
2022-10-04T00:28:19.191Z,80.75
2022-10-04T00:31:18.756Z,80.59
2022-10-04T00:33:50.923Z,81.02
2022-10-04T00:36:45.943Z,80.89
2022-10-04T00:39:37.571Z,81.07
2022-10-04T00:42:23.542Z,80.67
2022-10-04T00:44:59.484Z,80.85
2022-10-04T00:47:33.940Z,80.80
2022-10-04T00:50:12.472Z,81.31
2022-10-04T00:52:46.639Z,81.52
2022-10-04T00:55:27.330Z,81.25
2022-10-04T00:58:00.522Z,81.38
2022-10-04T01:00:33.361Z,81.34
2022-10-04T01:03:07.892Z,81.08
2022-10-04T01:05:40.871Z,81.25
2022-10-04T01:08:14.300Z,81.46
2022-10-04T01:10:48.945Z,81.65
2022-10-04T01:13:21.202Z,81.61
2022-10-04T01:15:55.373Z,81.27
2022-10-04T01:18:34.830Z,80.94
2022-10-04T01:21:09.102Z,81.52
2022-10-04T01:23:50.589Z,81.03
2022-10-04T01:26:41.361Z,81.38
2022-10-04T01:29:19.375Z,81.07
2022-10-04T01:31:51.444Z,81.21
2022-10-04T01:34:22.363Z,81.26
2022-10-04T01:36:54.330Z,81.13
2022-10-04T01:39:27.115Z,81.15
2022-10-04T01:42:00.189Z,81.30
2022-10-04T01:44:33.164Z,81.43
2022-10-04T01:47:07.400Z,81.26
2022-10-04T01:49:40.095Z,81.21
2022-10-04T01:52:16.549Z,81.03
2022-10-04T01:54:51.208Z,80.88
2022-10-04T01:57:24.328Z,81.16
2022-10-04T02:00:01.481Z,80.95
2022-10-04T02:02:38.070Z,81.00
2022-10-04T02:05:12.174Z,80.88
2022-10-04T02:07:43.626Z,81.30
2022-10-04T02:10:18.160Z,81.05
2022-10-04T02:12:50.934Z,80.87
2022-10-04T02:15:22.521Z,80.73
2022-10-04T02:17:52.435Z,81.00
2022-10-04T02:20:24.456Z,80.61
2022-10-04T02:22:59.237Z,80.83
2022-10-04T02:25:30.572Z,80.75
2022-10-04T02:28:00.073Z,81.00
2022-10-04T02:30:29.717Z,81.25
2022-10-04T02:32:59.782Z,81.23
2022-10-04T02:35:31.067Z,81.04
2022-10-04T02:38:11.788Z,80.83
2022-10-04T02:40:49.307Z,81.64
2022-10-04T02:43:23.473Z,81.44
2022-10-04T02:45:57.035Z,81.63
2022-10-04T02:48:35.229Z,81.49
2022-10-04T02:51:17.233Z,82.00
2022-10-04T02:53:53.957Z,82.16
2022-10-04T02:56:25.524Z,82.12
2022-10-04T02:58:56.180Z,81.61
2022-10-04T03:01:30.280Z,81.77
2022-10-04T03:04:00.595Z,82.09
2022-10-04T03:06:33.497Z,81.94
2022-10-04T03:09:06.519Z,82.38
2022-10-04T03:11:40.530Z,81.77
2022-10-04T03:14:14.977Z,82.04
2022-10-04T03:16:46.591Z,82.78
2022-10-04T03:19:19.280Z,83.89
2022-10-04T03:21:50.986Z,83.69
2022-10-04T03:24:23.934Z,83.39
2022-10-04T03:26:58.040Z,83.75
2022-10-04T03:29:30.284Z,84.15
2022-10-04T03:32:02.059Z,84.29
2022-10-04T03:34:36.121Z,84.79
2022-10-04T03:37:09.439Z,83.59
2022-10-04T03:39:42.494Z,84.08
2022-10-04T03:42:16.809Z,84.12
2022-10-04T03:44:47.650Z,84.09
2022-10-04T03:47:21.721Z,84.40
2022-10-04T03:49:52.866Z,84.54
2022-10-04T03:52:25.777Z,84.58
2022-10-04T03:55:00.282Z,84.31
2022-10-04T03:57:32.332Z,84.58
2022-10-04T04:00:02.920Z,84.38
2022-10-04T04:02:46.955Z,84.36
2022-10-04T04:05:21.379Z,84.37
2022-10-04T04:08:01.265Z,84.21
2022-10-04T04:10:32.949Z,84.25
2022-10-04T04:13:13.034Z,84.81
2022-10-04T04:15:45.587Z,84.49
2022-10-04T04:18:20.164Z,84.28
2022-10-04T04:20:51.554Z,83.90
2022-10-04T04:23:27.417Z,83.76
2022-10-04T04:26:00.854Z,83.90
2022-10-04T04:28:35.469Z,83.42
2022-10-04T04:31:09.037Z,83.88
2022-10-04T04:33:46.322Z,84.62
2022-10-04T04:36:18.548Z,84.80
2022-10-04T04:39:04.505Z,84.90
2022-10-04T04:41:36.084Z,84.41
2022-10-04T04:44:17.751Z,84.84
2022-10-04T04:46:47.627Z,84.84
2022-10-04T04:49:19.563Z,84.62
2022-10-04T04:51:51.702Z,84.98
2022-10-04T04:54:24.926Z,85.24
2022-10-04T04:56:56.226Z,85.31
2022-10-04T04:59:28.335Z,85.15
2022-10-04T05:01:57.574Z,85.47
2022-10-04T05:04:27.478Z,85.79
2022-10-04T05:07:06.337Z,85.62
2022-10-04T05:09:37.271Z,86.13
2022-10-04T05:12:11.858Z,85.87
2022-10-04T05:14:47.369Z,85.63
2022-10-04T05:17:22.067Z,85.86
2022-10-04T05:19:52.567Z,86.08
2022-10-04T05:22:23.874Z,85.73
2022-10-04T05:24:57.991Z,85.52
2022-10-04T05:27:31.767Z,86.29
2022-10-04T05:30:14.313Z,86.02
2022-10-04T05:32:55.694Z,85.72
2022-10-04T05:35:27.500Z,85.92
2022-10-04T05:38:09.173Z,85.79
2022-10-04T05:40:46.696Z,85.47
2022-10-04T05:43:36.548Z,86.00
2022-10-04T05:46:24.890Z,85.52
2022-10-04T05:49:00.465Z,85.40
2022-10-04T05:51:31.622Z,85.78
2022-10-04T05:54:04.080Z,85.55
2022-10-04T05:56:59.062Z,85.83
2022-10-04T05:59:45.810Z,86.38
2022-10-04T06:02:29.344Z,86.21
2022-10-04T06:05:10.899Z,85.74
2022-10-04T06:07:43.919Z,86.23
2022-10-04T06:10:39.805Z,85.72
2022-10-04T06:13:17.400Z,85.47
2022-10-04T06:15:59.287Z,85.54
2022-10-04T06:18:45.759Z,85.72
2022-10-04T06:21:23.357Z,85.98
2022-10-04T06:23:58.946Z,85.94
2022-10-04T06:26:34.007Z,85.61
2022-10-04T06:29:07.611Z,85.87
2022-10-04T06:32:05.439Z,85.67
2022-10-04T06:35:11.461Z,85.44
2022-10-04T06:38:09.167Z,85.81
2022-10-04T06:40:52.911Z,85.07
2022-10-04T06:43:36.958Z,84.87
2022-10-04T06:46:15.439Z,84.64
2022-10-04T06:49:19.467Z,85.01
2022-10-04T06:52:17.733Z,84.39
2022-10-04T06:55:14.964Z,84.73
2022-10-04T06:58:08.647Z,84.66
2022-10-04T07:00:42.809Z,84.65
2022-10-04T07:03:17.287Z,84.35
2022-10-04T07:05:51.721Z,84.20
2022-10-04T07:08:33.907Z,83.40
2022-10-04T07:11:12.229Z,83.55
2022-10-04T07:13:49.173Z,83.72
2022-10-04T07:16:35.676Z,83.35
2022-10-04T07:19:29.204Z,83.43
2022-10-04T07:22:05.259Z,83.47
2022-10-04T07:24:58.246Z,82.77
2022-10-04T07:27:33.264Z,82.68
2022-10-04T07:30:06.939Z,82.23
2022-10-04T07:32:38.913Z,82.06
2022-10-04T07:35:21.578Z,81.88
2022-10-04T07:37:58.887Z,81.81
2022-10-04T07:40:33.266Z,81.19
2022-10-04T07:43:08.222Z,80.89
2022-10-04T07:45:41.074Z,80.56
2022-10-04T07:48:16.377Z,80.63
2022-10-04T07:50:53.762Z,80.43
2022-10-04T07:53:25.143Z,80.29
2022-10-04T07:56:02.801Z,79.46
2022-10-04T07:58:45.919Z,78.99
2022-10-04T08:01:27.090Z,79.19
2022-10-04T08:04:15.729Z,78.45
2022-10-04T08:06:57.304Z,78.79
2022-10-04T08:09:45.549Z,78.93
2022-10-04T08:12:24.459Z,78.89
2022-10-04T08:15:04.597Z,78.12
2022-10-04T08:17:46.529Z,77.77
2022-10-04T08:20:37.064Z,77.22
2022-10-04T08:23:19.671Z,76.72
2022-10-04T08:25:57.535Z,75.81
2022-10-04T08:28:57.198Z,76.37
2022-10-04T08:31:39.520Z,75.62
2022-10-04T08:34:28.292Z,75.97
2022-10-04T08:37:06.482Z,76.19
2022-10-04T08:39:52.078Z,76.12
2022-10-04T08:42:48.486Z,75.88
2022-10-04T08:45:52.939Z,75.55
2022-10-04T08:49:01.100Z,75.47
2022-10-04T08:52:03.054Z,74.28
2022-10-04T08:55:00.634Z,73.30
2022-10-04T08:58:08.477Z,74.23
2022-10-04T09:01:05.996Z,74.47
2022-10-04T09:04:35.362Z,73.99
2022-10-04T09:07:35.782Z,73.91
2022-10-04T09:10:31.100Z,73.46
2022-10-04T09:13:22.318Z,74.04
2022-10-04T09:16:00.371Z,72.46
2022-10-04T09:18:51.128Z,71.65
2022-10-04T09:21:37.842Z,71.64
2022-10-04T09:24:37.254Z,70.81
2022-10-04T09:27:50.103Z,69.91
2022-10-04T09:30:19.821Z,68.89
2022-10-04T09:33:17.844Z,69.33
2022-10-04T09:36:21.473Z,66.44
2022-10-04T09:39:29.079Z,68.54
2022-10-04T09:42:18.924Z,66.11
2022-10-04T09:45:27.608Z,68.25
2022-10-04T09:48:28.494Z,67.81
2022-10-04T09:51:40.204Z,67.74
2022-10-04T09:54:42.352Z,66.70
2022-10-04T09:57:29.605Z,65.13
2022-10-04T10:00:22.178Z,66.57
2022-10-04T10:03:37.211Z,65.22
2022-10-04T10:06:30.660Z,64.11
2022-10-04T10:09:46.633Z,63.62
2022-10-04T10:12:53.358Z,64.82
2022-10-04T10:15:34.383Z,61.56
2022-10-04T10:18:18.499Z,60.65
2022-10-04T10:21:12.828Z,61.38
2022-10-04T10:24:03.389Z,63.04
2022-10-04T10:26:56.388Z,62.24
2022-10-04T10:29:52.399Z,59.76
2022-10-04T10:32:45.803Z,57.76
2022-10-04T10:35:49.100Z,57.35
2022-10-04T10:38:43.613Z,59.31
2022-10-04T10:41:32.270Z,56.70
2022-10-04T10:44:31.158Z,56.67
2022-10-04T10:47:31.629Z,57.58
2022-10-04T10:50:21.784Z,56.77
2022-10-04T10:53:26.034Z,53.72
2022-10-04T10:56:29.307Z,51.92
2022-10-04T10:59:33.452Z,49.17
2022-10-04T11:02:49.366Z,48.11
2022-10-04T11:06:04.505Z,46.20
2022-10-04T11:09:08.017Z,49.14
2022-10-04T11:12:06.245Z,49.84
2022-10-04T11:14:56.637Z,48.81
2022-10-04T11:17:51.702Z,46.29
2022-10-04T11:20:51.099Z,48.06
2022-10-04T11:23:58.450Z,48.62
2022-10-04T11:26:58.429Z,45.64
2022-10-04T11:29:49.259Z,46.20
2022-10-04T11:33:01.164Z,45.10
2022-10-04T11:36:08.241Z,48.21
2022-10-04T11:38:57.320Z,45.41
2022-10-04T11:41:42.621Z,47.60
2022-10-04T11:44:44.302Z,47.73
2022-10-04T11:47:40.567Z,47.17
2022-10-04T11:50:26.955Z,47.95
2022-10-04T11:53:19.957Z,49.04
2022-10-04T11:56:12.777Z,46.05
2022-10-04T11:58:54.639Z,45.46
2022-10-04T12:02:02.877Z,45.22
2022-10-04T12:05:18.920Z,45.39
2022-10-04T12:08:02.047Z,45.77
2022-10-04T12:10:35.910Z,47.10
2022-10-04T12:13:41.895Z,45.29
2022-10-04T12:16:38.791Z,47.12
2022-10-04T12:19:40.826Z,47.77
2022-10-04T12:22:34.197Z,47.34
2022-10-04T12:25:49.427Z,46.37
2022-10-04T12:29:05.881Z,46.15
2022-10-04T12:31:38.324Z,45.54
2022-10-04T12:34:16.783Z,45.54
2022-10-04T12:37:10.609Z,43.97
2022-10-04T12:39:59.399Z,43.59
2022-10-04T12:42:41.140Z,43.73
2022-10-04T12:45:41.848Z,43.83
2022-10-04T12:48:23.236Z,44.85
2022-10-04T12:51:01.297Z,44.04
2022-10-04T12:53:40.455Z,45.12
2022-10-04T12:56:37.240Z,44.79
2022-10-04T12:59:32.228Z,45.21
2022-10-04T13:02:21.221Z,45.15
2022-10-04T13:04:54.619Z,45.68
2022-10-04T13:07:45.551Z,44.39
2022-10-04T13:10:44.445Z,43.33
2022-10-04T13:13:45.908Z,43.62
2022-10-04T13:19:21.314Z,45.03
2022-10-04T13:22:43.979Z,45.14
2022-10-04T13:25:25.420Z,45.53
2022-10-04T13:28:03.449Z,46.96
2022-10-04T13:30:46.417Z,45.29
2022-10-04T13:33:24.832Z,46.88
2022-10-04T13:36:03.448Z,46.54
2022-10-04T13:39:07.399Z,46.91
2022-10-04T13:41:59.791Z,46.36
2022-10-04T13:44:46.091Z,46.28
2022-10-04T13:47:42.301Z,46.24
2022-10-04T13:50:36.449Z,47.15
2022-10-04T13:53:39.928Z,45.76
2022-10-04T13:56:40.513Z,46.84
2022-10-04T13:59:20.165Z,46.55
2022-10-04T14:02:23.445Z,47.39
2022-10-04T14:05:22.691Z,47.03
2022-10-04T14:08:11.230Z,47.03
2022-10-04T14:11:02.579Z,47.00
2022-10-04T14:13:57.452Z,45.78
2022-10-04T14:16:59.029Z,46.44
2022-10-04T14:20:15.874Z,47.11
2022-10-04T14:23:03.111Z,47.27
2022-10-04T14:26:15.770Z,47.17
2022-10-04T14:29:15.598Z,47.66
2022-10-04T14:32:10.222Z,48.20
2022-10-04T14:34:58.298Z,48.16
2022-10-04T14:38:01.297Z,48.39
2022-10-04T14:40:46.429Z,48.07
2022-10-04T14:43:47.268Z,48.67
2022-10-04T14:46:25.017Z,49.28
2022-10-04T14:49:08.050Z,48.95
2022-10-04T14:51:57.139Z,49.54
2022-10-04T14:54:43.377Z,49.45
2022-10-04T14:57:22.830Z,49.70
2022-10-04T15:00:19.959Z,50.27
2022-10-04T15:03:20.882Z,50.63
2022-10-04T15:06:22.140Z,51.02
2022-10-04T15:09:23.145Z,51.48
2022-10-04T15:12:25.327Z,51.65
2022-10-04T15:15:27.431Z,51.83
2022-10-04T15:18:04.127Z,52.11
2022-10-04T15:20:39.235Z,52.50
2022-10-04T15:23:17.082Z,52.30
2022-10-04T15:25:48.394Z,52.75
2022-10-04T15:28:43.741Z,53.10
2022-10-04T15:31:24.668Z,53.29
2022-10-04T15:34:05.379Z,53.50
2022-10-04T15:37:04.334Z,53.81
2022-10-04T15:40:00.345Z,54.15
2022-10-04T15:42:34.214Z,54.39
2022-10-04T15:46:00.760Z,55.02
2022-10-04T15:49:06.482Z,54.96
2022-10-04T15:51:50.037Z,55.51
2022-10-04T15:54:56.632Z,55.52
2022-10-04T15:57:33.814Z,56.13
2022-10-04T16:00:08.409Z,56.08
2022-10-04T16:02:57.386Z,56.74
2022-10-04T16:05:36.578Z,57.33
2022-10-04T16:08:29.766Z,57.22
2022-10-04T16:11:15.747Z,57.63
2022-10-04T16:14:01.872Z,57.96
2022-10-04T16:16:56.713Z,58.38
2022-10-04T16:19:41.607Z,58.22
2022-10-04T16:22:16.251Z,58.40
2022-10-04T16:24:51.459Z,58.90
2022-10-04T16:28:08.161Z,59.50
2022-10-04T16:30:44.121Z,59.73
2022-10-04T16:33:33.536Z,59.75
2022-10-04T16:36:16.468Z,60.24
2022-10-04T16:39:10.469Z,60.84
2022-10-04T16:41:44.519Z,60.97
2022-10-04T16:44:36.510Z,61.07
2022-10-04T16:47:21.296Z,61.57
2022-10-04T16:49:55.042Z,61.61
2022-10-04T16:52:34.631Z,61.46
2022-10-04T16:55:26.017Z,61.37
2022-10-04T16:58:33.701Z,62.07
2022-10-04T17:01:38.483Z,62.07
2022-10-04T17:04:40.662Z,62.17
2022-10-04T17:07:23.441Z,62.76
2022-10-04T17:10:03.067Z,63.51
2022-10-04T17:12:45.506Z,63.66
2022-10-04T17:15:43.613Z,63.08
2022-10-04T17:18:20.665Z,63.09
2022-10-04T17:20:58.047Z,63.25
2022-10-04T17:23:45.496Z,63.59
2022-10-04T17:26:31.029Z,63.43
2022-10-04T17:29:21.778Z,63.57
2022-10-04T17:31:58.326Z,63.95
2022-10-04T17:34:43.319Z,63.87
2022-10-04T17:37:27.415Z,64.37
2022-10-04T17:40:19.298Z,64.56
2022-10-04T17:42:59.925Z,64.62
2022-10-04T17:45:52.764Z,65.23
2022-10-04T17:48:43.085Z,65.05
2022-10-04T17:51:47.712Z,65.57
2022-10-04T17:54:39.013Z,65.60
2022-10-04T17:57:27.279Z,66.07
2022-10-04T18:00:08.305Z,66.07
2022-10-04T18:03:10.035Z,66.23
2022-10-04T18:05:52.534Z,65.99
2022-10-04T18:08:29.469Z,65.73
2022-10-04T18:11:03.656Z,66.42
2022-10-04T18:13:38.524Z,66.69
2022-10-04T18:16:17.748Z,66.70
2022-10-04T18:18:48.452Z,67.11
2022-10-04T18:21:27.727Z,67.18
2022-10-04T18:24:00.277Z,67.58
2022-10-04T18:26:33.044Z,67.15
2022-10-04T18:29:03.841Z,67.30
2022-10-04T18:31:39.657Z,67.67
2022-10-04T18:34:27.956Z,67.69
2022-10-04T18:37:07.072Z,68.42
2022-10-04T18:39:49.629Z,68.45
2022-10-04T18:42:27.256Z,69.46
2022-10-04T18:45:00.192Z,72.51
2022-10-04T18:47:37.075Z,75.58
2022-10-04T18:50:17.951Z,75.83
2022-10-04T18:53:04.294Z,76.17
2022-10-04T18:55:45.802Z,76.16
2022-10-04T18:58:45.235Z,75.92
2022-10-04T19:01:58.032Z,75.65
2022-10-04T19:04:45.300Z,75.09
2022-10-04T19:07:18.413Z,74.32
2022-10-04T19:10:02.754Z,74.18
2022-10-04T19:12:39.362Z,75.09
2022-10-04T19:15:23.656Z,74.44
2022-10-04T19:18:02.427Z,75.78
2022-10-04T19:20:40.655Z,74.81
2022-10-04T19:23:26.444Z,75.29
2022-10-04T19:26:30.656Z,75.65
2022-10-04T19:29:00.240Z,74.53
2022-10-04T19:31:35.566Z,73.65
2022-10-04T19:34:12.502Z,74.07
2022-10-04T19:36:51.418Z,74.51
2022-10-04T19:39:39.130Z,74.77
2022-10-04T19:42:15.274Z,74.22
2022-10-04T19:44:57.793Z,73.52
2022-10-04T19:47:41.376Z,73.10
2022-10-04T19:50:21.163Z,73.39
2022-10-04T19:52:54.520Z,73.33
2022-10-04T19:55:42.905Z,73.24
2022-10-04T19:58:39.161Z,73.53
2022-10-04T20:01:13.515Z,73.54
2022-10-04T20:03:43.353Z,73.31
2022-10-04T20:06:21.357Z,73.07
2022-10-04T20:08:56.774Z,73.32
2022-10-04T20:11:49.995Z,73.59
2022-10-04T20:14:48.172Z,73.57
2022-10-04T20:17:34.144Z,74.74
2022-10-04T20:20:04.222Z,74.84
2022-10-04T20:22:55.649Z,75.02
2022-10-04T20:26:02.269Z,74.58
2022-10-04T20:28:46.194Z,74.20
2022-10-04T20:31:52.704Z,74.02
2022-10-04T20:34:33.254Z,73.46
2022-10-04T20:37:03.402Z,73.94
2022-10-04T20:40:02.697Z,73.87
2022-10-04T20:42:39.926Z,74.03
2022-10-04T20:45:28.602Z,74.51
2022-10-04T20:47:59.670Z,74.13
2022-10-04T20:50:42.337Z,74.39
2022-10-04T20:53:20.034Z,74.23
2022-10-04T20:55:50.585Z,73.89
2022-10-04T20:58:32.918Z,74.34
2022-10-04T21:01:16.966Z,73.89
2022-10-04T21:03:46.470Z,73.88
2022-10-04T21:06:16.793Z,74.21
2022-10-04T21:08:45.957Z,74.39
2022-10-04T21:11:20.423Z,75.33
2022-10-04T21:13:55.583Z,75.10
2022-10-04T21:16:41.054Z,74.61
2022-10-04T21:19:50.354Z,74.81
2022-10-04T21:22:41.257Z,74.31
2022-10-04T21:25:40.601Z,74.30
2022-10-04T21:28:40.110Z,74.14
2022-10-04T21:31:09.265Z,74.13
2022-10-04T21:33:40.046Z,74.19
2022-10-04T21:36:09.449Z,74.53
2022-10-04T21:38:38.661Z,74.26
2022-10-04T21:41:08.439Z,74.65
2022-10-04T21:43:37.579Z,74.26
2022-10-04T21:46:06.814Z,74.66
2022-10-04T21:48:36.203Z,74.39
2022-10-04T21:51:06.792Z,74.78
2022-10-04T21:53:35.933Z,74.92
2022-10-04T21:56:07.613Z,74.75
2022-10-04T21:58:36.726Z,74.58
2022-10-04T22:01:06.181Z,74.59
2022-10-04T22:03:35.792Z,74.67
2022-10-04T22:06:06.520Z,74.74
2022-10-04T22:08:35.643Z,74.46
2022-10-04T22:11:05.079Z,74.74
2022-10-04T22:13:34.238Z,74.73
2022-10-04T22:16:03.664Z,74.45
2022-10-04T22:18:33.602Z,74.48
2022-10-04T22:21:03.404Z,74.93
2022-10-04T22:23:39.368Z,75.12
2022-10-04T22:26:13.260Z,74.78
2022-10-04T22:28:46.490Z,75.10
2022-10-04T22:31:17.672Z,75.56
2022-10-04T22:33:49.039Z,75.29
2022-10-04T22:36:20.882Z,75.16
2022-10-04T22:38:57.801Z,75.61
2022-10-04T22:41:31.203Z,75.40
2022-10-04T22:44:04.146Z,76.17
2022-10-04T22:46:38.460Z,76.08
2022-10-04T22:49:12.694Z,75.85
2022-10-04T22:51:44.354Z,76.05
2022-10-04T22:54:19.788Z,76.05
2022-10-04T22:56:49.710Z,75.73
2022-10-04T22:59:21.395Z,76.18
2022-10-04T23:01:50.842Z,75.90
2022-10-04T23:04:23.974Z,76.25
2022-10-04T23:06:54.370Z,75.84
2022-10-04T23:09:24.962Z,75.96
2022-10-04T23:11:54.287Z,75.90
2022-10-04T23:14:23.427Z,76.38
2022-10-04T23:16:52.580Z,76.18
2022-10-04T23:19:21.910Z,76.24
2022-10-04T23:21:52.261Z,76.11
2022-10-04T23:24:24.787Z,76.07
2022-10-04T23:26:57.266Z,76.07
2022-10-04T23:29:28.811Z,76.06
2022-10-04T23:31:59.027Z,76.18
2022-10-04T23:34:36.613Z,76.56
2022-10-04T23:37:14.728Z,76.05
2022-10-04T23:39:45.845Z,76.41
2022-10-04T23:42:20.311Z,76.41
2022-10-04T23:44:51.229Z,76.56
2022-10-04T23:47:22.746Z,76.64
2022-10-04T23:49:54.669Z,76.56
2022-10-04T23:52:27.341Z,76.23
2022-10-04T23:54:57.898Z,76.13
2022-10-04T23:57:28.866Z,76.16
2022-10-04T23:59:59.761Z,76.22
